Terminal Aerodrome Forecast
Issued by NWS

Home | Current Version | Previous Version | Graphics & Text | Print | Product List | Glossary On
Versions: 1 2 3 4 5 6 7 8 9 10 11 12 13 14 15 16 17 18 19 20 21 22
000
FTUS43 KICT 181634 AAC
TAFCNU
TAF AMD
KCNU 181634Z 1817/1912 06003KT 4SM BR OVC004
      TEMPO 1817/1820 2SM BR OVC003
     FM182000 02005KT 5SM BR OVC008
     FM190200 03004KT 4SM BR OVC008=

USA.gov is the U.S. government's official web portal to all federal, state and local government web resources and services.